Time,TemperatureF,DewpointF,PressureIn,WindDirection,WindDirectionDegrees,WindSpeedMPH,WindSpeedGustMPH,Humidity,HourlyPrecipIn,Conditions,Clouds,dailyrainin,SoftwareType,DateUTC
2013-05-03 00:00:00,43.4,41.5,30.46,East,85,1.0,8.0,93,0.00,,,0.00,Wunderground v.1.15,2013-05-03 04:00:00,
2013-05-03 00:10:00,43.6,42.0,30.46,ENE,69,1.0,8.0,94,0.00,,,0.00,Wunderground v.1.15,2013-05-03 04:10:00,
2013-05-03 00:20:00,44.0,42.4,30.46,East,85,1.0,8.0,94,0.00,,,0.00,Wunderground v.1.15,2013-05-03 04:20:00,
2013-05-03 00:30:00,44.1,42.5,30.46,East,92,1.0,8.0,94,0.00,,,0.00,Wunderground v.1.15,2013-05-03 04:30:00,
2013-05-03 00:40:00,44.0,42.4,30.46,East,91,0.0,8.0,94,0.00,,,0.00,Wunderground v.1.15,2013-05-03 04:40:00,
2013-05-03 00:50:00,43.8,42.2,30.46,East,91,0.0,8.0,94,0.00,,,0.00,Wunderground v.1.15,2013-05-03 04:50:00,
2013-05-03 01:00:00,43.6,42.0,30.46,NE,46,0.0,8.0,94,0.00,,,0.00,Wunderground v.1.15,2013-05-03 05:00:00,
2013-05-03 01:10:00,43.3,41.7,30.45,NE,46,0.0,8.0,94,0.00,,,0.00,Wunderground v.1.15,2013-05-03 05:10:00,
2013-05-03 01:20:00,43.0,41.4,30.45,NE,44,0.0,8.0,94,0.00,,,0.00,Wunderground v.1.15,2013-05-03 05:20:00,
2013-05-03 01:30:00,43.1,41.5,30.45,NE,38,0.0,8.0,94,0.00,,,0.00,Wunderground v.1.15,2013-05-03 05:30:00,
2013-05-03 01:40:00,43.1,41.5,30.45,NE,39,1.0,8.0,94,0.00,,,0.00,Wunderground v.1.15,2013-05-03 05:40:00,
2013-05-03 01:50:00,42.8,40.9,30.45,NE,39,2.0,8.0,93,0.00,,,0.00,Wunderground v.1.15,2013-05-03 05:50:00,
2013-05-03 02:00:00,42.7,41.1,30.44,NE,36,2.0,8.0,94,0.00,,,0.00,Wunderground v.1.15,2013-05-03 06:00:00,
2013-05-03 02:10:00,42.6,40.7,30.44,NE,36,2.0,8.0,93,0.00,,,0.00,Wunderground v.1.15,2013-05-03 06:10:00,
2013-05-03 02:20:00,42.8,40.9,30.44,NE,46,2.0,8.0,93,0.00,,,0.00,Wunderground v.1.15,2013-05-03 06:20:00,
2013-05-03 02:30:00,42.9,41.0,30.44,NE,34,2.0,2.0,93,0.00,,,0.00,Wunderground v.1.15,2013-05-03 06:30:00,
2013-05-03 02:40:00,42.8,40.6,30.44,NNE,29,2.0,8.0,92,0.00,,,0.00,Wunderground v.1.15,2013-05-03 06:40:00,
2013-05-03 02:50:00,42.6,40.4,30.44,NNW,327,1.0,8.0,92,0.00,,,0.00,Wunderground v.1.15,2013-05-03 06:50:00,
2013-05-03 03:00:00,42.4,40.5,30.44,North,6,1.0,8.0,93,0.00,,,0.00,Wunderground v.1.15,2013-05-03 07:00:00,
2013-05-03 03:10:00,42.2,40.0,30.44,NNE,20,1.0,8.0,92,0.00,,,0.00,Wunderground v.1.15,2013-05-03 07:10:00,
2013-05-03 03:20:00,41.9,39.7,30.44,NNE,20,1.0,8.0,92,0.00,,,0.00,Wunderground v.1.15,2013-05-03 07:20:00,
2013-05-03 03:30:00,41.4,39.5,30.44,NNE,22,1.0,8.0,93,0.00,,,0.00,Wunderground v.1.15,2013-05-03 07:30:00,
2013-05-03 03:40:00,41.5,39.6,30.44,NNE,20,1.0,8.0,93,0.00,,,0.00,Wunderground v.1.15,2013-05-03 07:40:00,
2013-05-03 03:50:00,41.4,39.5,30.44,NNE,12,0.0,8.0,93,0.00,,,0.00,Wunderground v.1.15,2013-05-03 07:50:00,
2013-05-03 04:00:00,41.1,39.2,30.44,NW,306,1.0,1.0,93,0.00,,,0.00,Wunderground v.1.15,2013-05-03 08:00:00,
2013-05-03 04:10:00,40.9,39.0,30.44,NW,310,2.0,8.0,93,0.00,,,0.00,Wunderground v.1.15,2013-05-03 08:10:00,
2013-05-03 04:20:00,40.8,38.9,30.44,North,6,1.0,8.0,93,0.00,,,0.00,Wunderground v.1.15,2013-05-03 08:20:00,
2013-05-03 04:30:00,40.8,38.9,30.44,NNE,32,2.0,8.0,93,0.00,,,0.00,Wunderground v.1.15,2013-05-03 08:30:00,
2013-05-03 04:40:00,40.4,38.5,30.45,NNW,336,2.0,2.0,93,0.00,,,0.00,Wunderground v.1.15,2013-05-03 08:40:00,
2013-05-03 04:50:00,39.8,37.9,30.45,NE,39,2.0,8.0,93,0.00,,,0.00,Wunderground v.1.15,2013-05-03 08:50:00,
2013-05-03 05:00:00,39.5,37.9,30.45,North,6,2.0,2.0,94,0.00,,,0.00,Wunderground v.1.15,2013-05-03 09:00:00,
2013-05-03 05:10:00,39.5,38.2,30.45,NNW,330,2.0,8.0,95,0.00,,,0.00,Wunderground v.1.15,2013-05-03 09:10:00,
2013-05-03 05:20:00,39.7,38.4,30.45,NNW,347,2.0,8.0,95,0.00,,,0.00,Wunderground v.1.15,2013-05-03 09:20:00,
2013-05-03 05:30:00,39.9,38.6,30.45,North,8,2.0,8.0,95,0.00,,,0.00,Wunderground v.1.15,2013-05-03 09:30:00,
2013-05-03 05:40:00,40.2,38.9,30.45,NNE,32,2.0,8.0,95,0.00,,,0.00,Wunderground v.1.15,2013-05-03 09:40:00,
2013-05-03 05:50:00,40.7,39.4,30.46,North,6,2.0,2.0,95,0.00,,,0.00,Wunderground v.1.15,2013-05-03 09:50:00,
2013-05-03 06:00:00,41.0,39.7,30.46,NNW,329,2.0,8.0,95,0.00,,,0.00,Wunderground v.1.15,2013-05-03 10:00:00,
2013-05-03 06:11:00,41.5,40.2,30.46,NE,44,2.0,8.0,95,0.00,,,0.00,Wunderground v.1.15,2013-05-03 10:11:00,
2013-05-03 06:20:00,42.2,40.6,30.47,NNE,23,2.0,2.0,94,0.00,,,0.00,Wunderground v.1.15,2013-05-03 10:20:00,
2013-05-03 06:30:00,42.9,41.0,30.47,NE,44,3.0,8.0,93,0.00,,,0.00,Wunderground v.1.15,2013-05-03 10:30:00,
2013-05-03 06:40:00,43.8,41.6,30.47,ENE,58,3.0,3.0,92,0.00,,,0.00,Wunderground v.1.15,2013-05-03 10:40:00,
2013-05-03 06:50:00,45.0,42.2,30.47,NE,42,4.0,8.0,90,0.00,,,0.00,Wunderground v.1.15,2013-05-03 10:50:00,
2013-05-03 07:00:00,45.8,42.2,30.48,NE,39,6.0,8.0,87,0.00,,,0.00,Wunderground v.1.15,2013-05-03 11:00:00,
2013-05-03 07:10:00,46.5,42.5,30.48,NNE,32,6.0,8.0,86,0.00,,,0.00,Wunderground v.1.15,2013-05-03 11:10:00,
2013-05-03 07:20:00,46.5,42.2,30.48,NNW,339,8.0,8.0,85,0.00,,,0.00,Wunderground v.1.15,2013-05-03 11:20:00,
2013-05-03 07:30:00,46.3,42.0,30.48,ENE,61,7.0,9.0,85,0.00,,,0.00,Wunderground v.1.15,2013-05-03 11:30:00,
2013-05-03 07:40:00,46.2,41.9,30.48,NE,49,8.0,8.0,85,0.00,,,0.00,Wunderground v.1.15,2013-05-03 11:40:00,
2013-05-03 07:50:00,46.3,42.3,30.49,NE,52,8.0,8.0,86,0.00,,,0.01,Wunderground v.1.15,2013-05-03 11:50:00,
2013-05-03 08:00:00,46.4,42.4,30.49,NE,42,8.0,8.0,86,0.00,,,0.01,Wunderground v.1.15,2013-05-03 12:00:00,
2013-05-03 08:10:00,46.7,42.4,30.49,ENE,60,8.0,9.0,85,0.00,,,0.01,Wunderground v.1.15,2013-05-03 12:10:00,
2013-05-03 08:20:00,46.7,42.4,30.49,NE,50,8.0,9.0,85,0.00,,,0.01,Wunderground v.1.15,2013-05-03 12:20:00,
2013-05-03 08:30:00,46.5,41.9,30.49,NE,34,8.0,8.0,84,0.00,,,0.01,Wunderground v.1.15,2013-05-03 12:30:00,
2013-05-03 08:40:00,47.3,42.7,30.49,ENE,58,8.0,9.0,84,0.00,,,0.01,Wunderground v.1.15,2013-05-03 12:40:00,
2013-05-03 08:50:00,47.9,43.3,30.49,NNE,13,7.0,8.0,84,0.00,,,0.01,Wunderground v.1.15,2013-05-03 12:50:00,
2013-05-03 09:00:00,47.9,43.0,30.48,NE,38,7.0,7.0,83,0.00,,,0.01,Wunderground v.1.15,2013-05-03 13:00:00,
2013-05-03 09:10:00,48.3,43.7,30.48,NE,38,9.0,9.0,84,0.00,,,0.01,Wunderground v.1.15,2013-05-03 13:10:00,
2013-05-03 09:20:00,48.7,43.5,30.48,NNE,30,8.0,8.0,82,0.00,,,0.01,Wunderground v.1.15,2013-05-03 13:20:00,
2013-05-03 09:30:00,48.2,43.0,30.48,NE,36,7.0,8.0,82,0.00,,,0.01,Wunderground v.1.15,2013-05-03 13:30:00,
2013-05-03 09:40:00,47.7,42.8,30.48,NE,39,8.0,16.0,83,0.00,,,0.01,Wunderground v.1.15,2013-05-03 13:40:00,
2013-05-03 09:50:00,47.8,42.6,30.48,ENE,59,8.0,8.0,82,0.00,,,0.01,Wunderground v.1.15,2013-05-03 13:50:00,
2013-05-03 10:00:00,48.1,42.5,30.48,NNE,30,7.0,8.0,81,0.00,,,0.01,Wunderground v.1.15,2013-05-03 14:00:00,
2013-05-03 10:10:00,48.3,42.7,30.48,NNE,23,8.0,8.0,81,0.00,,,0.01,Wunderground v.1.15,2013-05-03 14:10:00,
2013-05-03 10:20:00,48.3,42.7,30.48,NE,47,9.0,9.0,81,0.00,,,0.01,Wunderground v.1.15,2013-05-03 14:20:00,
2013-05-03 10:30:00,49.2,43.3,30.48,NE,53,9.0,11.0,80,0.00,,,0.01,Wunderground v.1.15,2013-05-03 14:30:00,
2013-05-03 10:40:00,49.3,43.7,30.48,ENE,63,7.0,8.0,81,0.00,,,0.01,Wunderground v.1.15,2013-05-03 14:40:00,
2013-05-03 10:50:00,49.0,43.4,30.49,NNE,25,8.0,8.0,81,0.00,,,0.01,Wunderground v.1.15,2013-05-03 14:50:00,
2013-05-03 11:00:00,48.9,43.6,30.49,NE,37,6.0,6.0,82,0.00,,,0.01,Wunderground v.1.15,2013-05-03 15:00:00,
2013-05-03 11:10:00,48.6,43.7,30.49,NE,47,8.0,10.0,83,0.00,,,0.01,Wunderground v.1.15,2013-05-03 15:10:00,
2013-05-03 11:20:00,48.1,43.5,30.48,NNE,13,8.0,8.0,84,0.00,,,0.01,Wunderground v.1.15,2013-05-03 15:20:00,
2013-05-03 11:30:00,47.7,43.4,30.48,NNE,20,9.0,9.0,85,0.00,,,0.01,Wunderground v.1.15,2013-05-03 15:30:00,
2013-05-03 11:40:00,47.4,43.7,30.48,NNE,33,8.0,8.0,87,0.00,,,0.01,Wunderground v.1.15,2013-05-03 15:40:00,
2013-05-03 11:50:00,47.2,43.8,30.48,NNE,23,8.0,8.0,88,0.00,,,0.01,Wunderground v.1.15,2013-05-03 15:50:00,
2013-05-03 12:00:00,46.7,43.6,30.48,NE,56,8.0,9.0,89,0.00,,,0.01,Wunderground v.1.15,2013-05-03 16:00:00,
2013-05-03 12:10:00,46.9,43.5,30.48,ENE,60,8.0,8.0,88,0.00,,,0.01,Wunderground v.1.15,2013-05-03 16:10:00,
2013-05-03 12:20:00,46.8,43.4,30.47,NE,53,8.0,8.0,88,0.00,,,0.01,Wunderground v.1.15,2013-05-03 16:20:00,
2013-05-03 12:31:00,47.1,43.4,30.47,NE,49,8.0,10.0,87,0.00,,,0.01,Wunderground v.1.15,2013-05-03 16:31:00,
2013-05-03 12:40:00,47.3,43.3,30.47,ENE,65,8.0,10.0,86,0.00,,,0.01,Wunderground v.1.15,2013-05-03 16:40:00,
2013-05-03 12:50:00,47.7,44.0,30.47,NE,41,9.0,15.0,87,0.00,,,0.01,Wunderground v.1.15,2013-05-03 16:50:00,
2013-05-03 13:00:00,47.7,43.7,30.47,ENE,58,9.0,9.0,86,0.00,,,0.01,Wunderground v.1.15,2013-05-03 17:00:00,
2013-05-03 13:10:00,48.1,44.1,30.46,NE,55,8.0,12.0,86,0.00,,,0.01,Wunderground v.1.15,2013-05-03 17:10:00,
2013-05-03 13:20:00,48.1,43.8,30.46,NE,41,9.0,9.0,85,0.00,,,0.01,Wunderground v.1.15,2013-05-03 17:20:00,
2013-05-03 13:30:00,47.9,43.9,30.46,ENE,60,9.0,10.0,86,0.00,,,0.01,Wunderground v.1.15,2013-05-03 17:30:00,
2013-05-03 13:40:00,47.8,44.1,30.45,NE,50,9.0,9.0,87,0.00,,,0.01,Wunderground v.1.15,2013-05-03 17:40:00,
2013-05-03 13:50:00,48.1,43.8,30.45,NE,36,8.0,14.0,85,0.00,,,0.01,Wunderground v.1.15,2013-05-03 17:50:00,
2013-05-03 14:00:00,47.7,43.7,30.45,NE,53,10.0,10.0,86,0.00,,,0.01,Wunderground v.1.15,2013-05-03 18:00:00,
2013-05-03 14:10:00,48.5,44.2,30.45,NE,37,8.0,9.0,85,0.00,,,0.01,Wunderground v.1.15,2013-05-03 18:10:00,
2013-05-03 14:20:00,48.7,44.1,30.45,NE,50,8.0,8.0,84,0.00,,,0.01,Wunderground v.1.15,2013-05-03 18:20:00,
2013-05-03 14:30:00,49.0,44.1,30.45,North,1,8.0,8.0,83,0.00,,,0.01,Wunderground v.1.15,2013-05-03 18:30:00,
2013-05-03 14:40:00,48.9,44.0,30.45,NE,41,7.0,7.0,83,0.00,,,0.01,Wunderground v.1.15,2013-05-03 18:40:00,
2013-05-03 14:50:00,48.8,43.9,30.45,ENE,65,8.0,8.0,83,0.00,,,0.01,Wunderground v.1.15,2013-05-03 18:50:00,
2013-05-03 15:00:00,48.9,44.0,30.45,NE,53,8.0,8.0,83,0.00,,,0.01,Wunderground v.1.15,2013-05-03 19:00:00,
2013-05-03 15:10:00,49.0,43.7,30.44,NE,55,6.0,8.0,82,0.00,,,0.01,Wunderground v.1.15,2013-05-03 19:10:00,
2013-05-03 15:20:00,49.7,44.1,30.44,NNE,23,8.0,8.0,81,0.00,,,0.01,Wunderground v.1.15,2013-05-03 19:20:00,
2013-05-03 15:30:00,49.0,43.1,30.43,ENE,67,9.0,9.0,80,0.00,,,0.01,Wunderground v.1.15,2013-05-03 19:30:00,
2013-05-03 15:40:00,49.3,43.4,30.43,ENE,75,9.0,9.0,80,0.00,,,0.01,Wunderground v.1.15,2013-05-03 19:40:00,
2013-05-03 15:50:00,49.0,43.4,30.43,NE,53,9.0,9.0,81,0.00,,,0.01,Wunderground v.1.15,2013-05-03 19:50:00,
2013-05-03 16:00:00,49.8,43.9,30.42,ENE,61,8.0,9.0,80,0.00,,,0.01,Wunderground v.1.15,2013-05-03 20:00:00,
2013-05-03 16:10:00,49.6,44.0,30.42,NE,38,8.0,8.0,81,0.00,,,0.01,Wunderground v.1.15,2013-05-03 20:10:00,
2013-05-03 16:20:00,49.4,43.8,30.42,NE,52,7.0,7.0,81,0.00,,,0.01,Wunderground v.1.15,2013-05-03 20:20:00,
2013-05-03 16:30:00,49.1,44.2,30.42,NE,49,7.0,7.0,83,0.00,,,0.01,Wunderground v.1.15,2013-05-03 20:30:00,
2013-05-03 16:40:00,49.1,43.5,30.42,NE,44,7.0,8.0,81,0.00,,,0.01,Wunderground v.1.15,2013-05-03 20:40:00,
2013-05-03 16:50:00,48.3,43.1,30.42,NE,44,8.0,8.0,82,0.00,,,0.01,Wunderground v.1.15,2013-05-03 20:50:00,
2013-05-03 17:00:00,48.6,43.7,30.42,NNE,33,6.0,6.0,83,0.00,,,0.01,Wunderground v.1.15,2013-05-03 21:00:00,
2013-05-03 17:10:00,47.7,43.1,30.42,NE,41,7.0,7.0,84,0.00,,,0.01,Wunderground v.1.15,2013-05-03 21:10:00,
2013-05-03 17:20:00,47.1,42.8,30.42,NE,53,6.0,8.0,85,0.00,,,0.01,Wunderground v.1.15,2013-05-03 21:20:00,
2013-05-03 17:30:00,46.5,42.8,30.42,NE,50,7.0,8.0,87,0.00,,,0.01,Wunderground v.1.15,2013-05-03 21:30:00,
2013-05-03 17:40:00,46.3,42.3,30.42,ENE,63,5.0,8.0,86,0.00,,,0.01,Wunderground v.1.15,2013-05-03 21:40:00,
2013-05-03 17:50:00,45.5,42.2,30.42,NE,49,6.0,9.0,88,0.00,,,0.01,Wunderground v.1.15,2013-05-03 21:50:00,
2013-05-03 18:00:00,45.1,41.8,30.42,NE,44,6.0,6.0,88,0.00,,,0.01,Wunderground v.1.15,2013-05-03 22:00:00,
2013-05-03 18:10:00,44.8,42.0,30.42,NNE,30,6.0,8.0,90,0.00,,,0.01,Wunderground v.1.15,2013-05-03 22:10:00,
2013-05-03 18:20:00,44.6,41.8,30.42,NE,44,6.0,6.0,90,0.00,,,0.01,Wunderground v.1.15,2013-05-03 22:20:00,
2013-05-03 18:30:00,44.5,41.7,30.42,NE,52,5.0,8.0,90,0.00,,,0.01,Wunderground v.1.15,2013-05-03 22:30:00,
2013-05-03 18:40:00,44.3,41.8,30.42,ENE,72,6.0,6.0,91,0.00,,,0.01,Wunderground v.1.15,2013-05-03 22:40:00,
2013-05-03 18:50:00,44.1,41.6,30.42,NE,55,6.0,6.0,91,0.00,,,0.01,Wunderground v.1.15,2013-05-03 22:50:00,
2013-05-03 19:00:00,44.1,41.6,30.42,NE,41,5.0,8.0,91,0.00,,,0.01,Wunderground v.1.15,2013-05-03 23:00:00,
2013-05-03 19:10:00,44.2,42.0,30.41,NE,47,4.0,4.0,92,0.00,,,0.01,Wunderground v.1.15,2013-05-03 23:10:00,
2013-05-03 19:20:00,44.2,41.7,30.41,ENE,66,3.0,8.0,91,0.00,,,0.01,Wunderground v.1.15,2013-05-03 23:20:00,
2013-05-03 19:30:00,44.1,41.9,30.41,ENE,63,3.0,8.0,92,0.00,,,0.01,Wunderground v.1.15,2013-05-03 23:30:00,
2013-05-03 19:40:00,44.0,41.5,30.41,East,79,4.0,8.0,91,0.00,,,0.01,Wunderground v.1.15,2013-05-03 23:40:00,
2013-05-03 19:50:00,43.7,41.5,30.41,NE,37,3.0,8.0,92,0.00,,,0.01,Wunderground v.1.15,2013-05-03 23:50:00,
2013-05-03 20:00:00,43.5,41.3,30.40,NE,46,2.0,8.0,92,0.00,,,0.01,Wunderground v.1.15,2013-05-04 00:00:00,
2013-05-03 20:10:00,43.3,41.1,30.40,NNE,28,1.0,8.0,92,0.00,,,0.01,Wunderground v.1.15,2013-05-04 00:10:00,
2013-05-03 20:20:00,43.1,41.2,30.40,NE,38,2.0,2.0,93,0.00,,,0.01,Wunderground v.1.15,2013-05-04 00:20:00,
2013-05-03 20:30:00,43.0,41.1,30.40,NE,46,1.0,1.0,93,0.00,,,0.01,Wunderground v.1.15,2013-05-04 00:30:00,
2013-05-03 20:40:00,42.9,41.3,30.41,NE,36,2.0,2.0,94,0.00,,,0.01,Wunderground v.1.15,2013-05-04 00:40:00,
2013-05-03 20:50:00,43.0,41.4,30.41,NE,38,1.0,1.0,94,0.00,,,0.01,Wunderground v.1.15,2013-05-04 00:50:00,
2013-05-03 21:00:00,43.1,41.5,30.41,NNE,32,1.0,8.0,94,0.00,,,0.01,Wunderground v.1.15,2013-05-04 01:00:00,
2013-05-03 21:10:00,43.2,41.6,30.41,NNW,343,0.0,8.0,94,0.00,,,0.01,Wunderground v.1.15,2013-05-04 01:10:00,
2013-05-03 21:20:00,43.1,41.5,30.41,North,9,0.0,8.0,94,0.00,,,0.01,Wunderground v.1.15,2013-05-04 01:20:00,
2013-05-03 21:30:00,43.2,41.6,30.41,NNW,337,0.0,8.0,94,0.00,,,0.01,Wunderground v.1.15,2013-05-04 01:30:00,
2013-05-03 21:40:00,43.2,41.6,30.41,NW,312,0.0,8.0,94,0.00,,,0.01,Wunderground v.1.15,2013-05-04 01:40:00,
2013-05-03 21:50:00,43.2,41.6,30.41,NNW,337,0.0,8.0,94,0.00,,,0.01,Wunderground v.1.15,2013-05-04 01:50:00,
2013-05-03 22:00:00,43.1,41.5,30.41,NW,304,0.0,8.0,94,0.00,,,0.01,Wunderground v.1.15,2013-05-04 02:00:00,
2013-05-03 22:10:00,42.7,41.1,30.40,NNW,348,0.0,8.0,94,0.00,,,0.01,Wunderground v.1.15,2013-05-04 02:10:00,
2013-05-03 22:20:00,42.5,40.9,30.40,NNW,341,0.0,8.0,94,0.00,,,0.01,Wunderground v.1.15,2013-05-04 02:20:00,
2013-05-03 22:30:00,42.2,40.9,30.39,NW,315,0.0,8.0,95,0.00,,,0.01,Wunderground v.1.15,2013-05-04 02:30:00,
2013-05-03 22:40:00,41.8,40.5,30.39,WNW,294,0.0,8.0,95,0.00,,,0.01,Wunderground v.1.15,2013-05-04 02:40:00,
2013-05-03 22:50:00,41.3,40.0,30.38,WNW,293,0.0,8.0,95,0.00,,,0.01,Wunderground v.1.15,2013-05-04 02:50:00,
2013-05-03 23:00:00,41.0,39.7,30.38,NE,44,0.0,8.0,95,0.00,,,0.01,Wunderground v.1.15,2013-05-04 03:00:00,
2013-05-03 23:10:00,41.1,40.0,30.38,NNE,23,0.0,8.0,96,0.00,,,0.01,Wunderground v.1.15,2013-05-04 03:10:00,
2013-05-03 23:20:00,41.0,39.9,30.38,NNE,23,0.0,8.0,96,0.00,,,0.01,Wunderground v.1.15,2013-05-04 03:20:00,
2013-05-03 23:30:00,40.9,39.8,30.38,NE,43,0.0,8.0,96,0.00,,,0.01,Wunderground v.1.15,2013-05-04 03:30:00,
2013-05-03 23:40:00,41.2,40.1,30.38,NNE,26,2.0,8.0,96,0.00,,,0.01,Wunderground v.1.15,2013-05-04 03:40:00,
2013-05-03 23:50:00,41.4,40.3,30.38,NNE,32,2.0,8.0,96,0.00,,,0.01,Wunderground v.1.15,2013-05-04 03:50:00,